Emporia, KS

6:18 AM CST on February 12, 2016 (GMT -0600)
Timmerman School Area | | Change Station
CLOSE
Current Station
Personal Weather Station
Location: Emporia, KS
Elevation: 1214 ft
Nearby Weather Stations

Elev 1214 ft 38.43 °N, 96.22 °W | Updated 4 seconds ago

Partly Cloudy
Partly Cloudy
26.6 °F
Feels Like 27 °F
N
0.0
Wind Variable Wind from West
Gusts 0.0 mph

Today
High -- | Low -- °F
--% Chance of Precip.
Yesterday
High -- | Low -- °F
Precip. -- in
Pressure 30.29 in
Visibility 10.0 miles
Clouds Mostly Cloudy 1800 ft
Windchill 27 °F
Dew Point -7 °F
Humidity 22%
Rainfall 0.00 in
Snow Depth Not available.
7:19 AM 5:59 PM
Waxing Crescent, 20% visible
SPECI KEMP 121206Z AUTO 29008KT 10SM BKN018 M04/M06 A3029 RMK AO2 T10391056
Pressure 30.29 in
Visibility 10.0 miles
Clouds Mostly Cloudy 1800 ft
Windchill 27 °F
Dew Point -7 °F
Humidity 22%
Rainfall 0.00 in
Snow Depth Not available.
7:19 AM 5:59 PM
Waxing Crescent, 20% visible
SPECI KEMP 121206Z AUTO 29008KT 10SM BKN018 M04/M06 A3029 RMK AO2 T10391056

10-Day Weather Forecast

Almanac

Astronomy

Feb. 12, 2016 Rise Set
Actual Time
Civil Twilight
Nautical Twilight
Astronomical Twilight
Moon
Length of Visible Light
Length of Day
Tomorrow will be .
, % of the Moon is Illuminated

Today's Extremes

State Highs State Lows

Community

WunderPhotos

Upload Photos

1,892,295 photos uploaded!

WunderBlog® & News

Nearby

Air Quality

  Air Quality AQ Index Pollutant
Not available.

Snow Depth

Station Depth Elevation

Earthquake Activity

City Distance Mag. Time & Date
Minimum magnitude displayed is 2.5.

Coastal Water Temperatures

Place Temperature

Stations

Nearby Weather Stations

Station Location Temp. Windchill Dew Point Humidity Wind Precip. Elev Updated Type
                   

Watches & Warnings

There are currently no watches in effect.